Gallina — 9VGC4 — position and weather

sailwx.info

Track history (hours):
 
Tides and Currents Weather Stations Pressure Air Temp Water Temp Dewpoint Dewpoint Depression Visibility Wind Speed Wind Dir Waves Ship Positions

Gallina

Last reported at 2016-Jan-27 17:16 UTC. Time now 2016-Feb-08 10:13 UTC.
Position N 43°59' W 004°56'.
Warning: this ship's position is 11 days out of date.

Type: Ship (hazmat cat A). MMSI: 564646000.

Date/timePositionNaut miles runAvg speedWind from/ knotsBaromVisibWave heightAir tempDewpointWater temp
2016-Jan-27 17:16N 43°59' W 004°56'1318.1
2016-Jan-27 16:32N 44°01' W 005°15'1818.1
2016-Jan-27 15:32N 44°02' W 005°40'23514.6
2016-Jan-26 23:26N 41°59' W 010°13'5217.9
2016-Jan-26 20:31N 41°09' W 010°35'1818.4
2016-Jan-26 19:31N 40°52' W 010°44'61416.9
2016-Jan-25 07:14N 31°11' W 014°47'1115.6
2016-Jan-25 06:34N 31°01' W 014°51'1615.6
2016-Jan-25 05:34N 30°46' W 014°55'1515.4
2016-Jan-25 04:34N 30°31' W 015°00'1515.4
2016-Jan-25 03:34N 30°16' W 015°05'1515.4
2016-Jan-25 02:34N 30°02' W 015°11'1615.8
2016-Jan-25 01:33N 29°46' W 015°15'1615.8
2016-Jan-25 00:33N 29°31' W 015°20'1616.0
2016-Jan-24 23:33N 29°15' W 015°24'1615.7
2016-Jan-24 22:33N 29°00' W 015°29'1615.6
2016-Jan-24 21:33N 28°45' W 015°34'1515.3
2016-Jan-24 20:33N 28°32' W 015°43'1615.7
2016-Jan-24 19:33N 28°21' W 015°55'1111.2
2016-Jan-24 18:34N 28°26' W 016°06'1 0.6
2016-Jan-24 17:34N 28°27' W 016°06'4 4.0
2016-Jan-24 16:33N 28°24' W 016°02'  
Track history (hours):
 
Tides and Currents Weather Stations Pressure Air Temp Water Temp Dewpoint Dewpoint Depression Visibility Wind Speed Wind Dir Waves Ship Positions

Gallina

Last reported at 2016-Jan-27 17:16 UTC. Time now 2016-Feb-08 10:13 UTC.
Position N 43°59' W 004°56'.
Warning: this ship's position is 11 days out of date.

Type: Ship (hazmat cat A). MMSI: 564646000.

Date/timePositionNaut miles runAvg speedWind from/ knotsBaromVisibWave heightAir tempDewpointWater temp
2016-Jan-27 17:16N 43°59' W 004°56'1318.1
2016-Jan-27 16:32N 44°01' W 005°15'1818.1
2016-Jan-27 15:32N 44°02' W 005°40'23514.6
2016-Jan-26 23:26N 41°59' W 010°13'5217.9
2016-Jan-26 20:31N 41°09' W 010°35'1818.4
2016-Jan-26 19:31N 40°52' W 010°44'61416.9
2016-Jan-25 07:14N 31°11' W 014°47'1115.6
2016-Jan-25 06:34N 31°01' W 014°51'1615.6
2016-Jan-25 05:34N 30°46' W 014°55'1515.4
2016-Jan-25 04:34N 30°31' W 015°00'1515.4
2016-Jan-25 03:34N 30°16' W 015°05'1515.4
2016-Jan-25 02:34N 30°02' W 015°11'1615.8
2016-Jan-25 01:33N 29°46' W 015°15'1615.8
2016-Jan-25 00:33N 29°31' W 015°20'1616.0
2016-Jan-24 23:33N 29°15' W 015°24'1615.7
2016-Jan-24 22:33N 29°00' W 015°29'1615.6
2016-Jan-24 21:33N 28°45' W 015°34'1515.3
2016-Jan-24 20:33N 28°32' W 015°43'1615.7
2016-Jan-24 19:33N 28°21' W 015°55'1111.2
2016-Jan-24 18:34N 28°26' W 016°06'1 0.6
2016-Jan-24 17:34N 28°27' W 016°06'4 4.0
2016-Jan-24 16:33N 28°24' W 016°02'  

Dump ship's entire track history